Time;durP1;ratioP1;P1;durP2;ratioP2;P2;SDS_P1;SDS_P2;PMS_P1;PMS_P2;Temp;Humidity;BMP_temperature;BMP_pressure;BME280_temperature;BME280_humidity;BME280_pressure;Samples;Min_cycle;Max_cycle;Signal;HPM_P1;HPM_P2
2022/10/09 00:04:04;;;;;;;12.10;4.30;;;21.30;72.20;;;;;;215030;1291;23834;-59
2022/10/09 00:09:08;;;;;;;11.10;4.60;;;21.30;72.60;;;;;;214908;1284;23085;-57
2022/10/09 00:14:11;;;;;;;13.10;5.10;;;21.30;72.40;;;;;;214953;1292;25189;-62
2022/10/09 00:19:15;;;;;;;16.70;5.00;;;21.30;72.70;;;;;;215030;1284;24383;-58
2022/10/09 00:24:18;;;;;;;12.70;4.70;;;21.30;72.90;;;;;;214931;1288;24245;-59
2022/10/09 00:29:22;;;;;;;10.90;4.70;;;21.30;73.10;;;;;;214922;1295;22546;-57
2022/10/09 00:34:25;;;;;;;12.00;4.60;;;21.30;73.80;;;;;;214825;1284;24392;-56
2022/10/09 00:39:30;;;;;;;10.30;4.70;;;21.30;73.40;;;;;;214951;1285;22743;-56
2022/10/09 00:44:56;;;;;;;12.50;5.00;;;21.30;73.60;;;;;;214948;1295;24483;-58
2022/10/09 00:50:38;;;;;;;16.30;5.30;;;21.40;74.00;;;;;;214768;1294;23850;-58
2022/10/09 00:55:42;;;;;;;9.90;5.30;;;21.40;74.10;;;;;;215648;1284;24279;-57
2022/10/09 01:00:47;;;;;;;11.70;5.00;;;21.40;74.20;;;;;;214905;1295;22542;-56
2022/10/09 01:05:51;;;;;;;10.40;5.50;;;21.40;74.30;;;;;;214971;1293;25393;-56
2022/10/09 01:11:00;;;;;;;11.80;5.30;;;21.40;74.60;;;;;;214798;1292;22584;-56
2022/10/09 01:16:28;;;;;;;12.80;5.40;;;21.40;74.80;;;;;;214869;1275;24325;-58
2022/10/09 01:21:57;;;;;;;10.90;5.10;;;21.40;75.10;;;;;;214698;1295;25231;-60
2022/10/09 01:27:09;;;;;;;14.10;5.40;;;21.40;75.40;;;;;;214905;1296;22517;-59
2022/10/09 01:32:17;;;;;;;9.80;5.00;;;21.40;75.40;;;;;;214834;1291;22467;-58
2022/10/09 01:37:22;;;;;;;13.40;5.10;;;21.40;75.50;;;;;;215109;1282;22497;-57
2022/10/09 01:42:28;;;;;;;13.60;5.30;;;21.50;75.80;;;;;;215086;1300;22457;-59
2022/10/09 01:47:31;;;;;;;9.20;4.70;;;21.50;75.30;;;;;;215017;1293;23914;-55
2022/10/09 01:53:02;;;;;;;10.90;4.40;;;21.50;75.10;;;;;;214820;1293;22465;-61
2022/10/09 01:58:30;;;;;;;12.30;4.70;;;21.50;75.00;;;;;;214856;1284;24308;-59
2022/10/09 02:03:36;;;;;;;10.10;5.20;;;21.50;74.80;;;;;;215049;1285;25181;-59
2022/10/09 02:08:42;;;;;;;9.60;5.00;;;21.50;74.70;;;;;;215037;1294;24352;-57
2022/10/09 02:13:48;;;;;;;10.40;4.40;;;21.40;74.50;;;;;;215042;1281;24234;-58
2022/10/09 02:19:27;;;;;;;10.00;3.80;;;21.40;74.40;;;;;;214918;1292;22470;-59
2022/10/09 02:24:31;;;;;;;7.90;4.00;;;21.50;74.30;;;;;;214832;1279;22471;-60
2022/10/09 02:29:38;;;;;;;9.10;4.90;;;21.40;74.20;;;;;;214931;1284;22453;-59
2022/10/09 02:34:45;;;;;;;11.40;4.00;;;21.40;74.10;;;;;;214887;1284;23082;-59
2022/10/09 02:39:49;;;;;;;9.20;3.50;;;21.40;73.90;;;;;;215083;1282;25305;-58
2022/10/09 02:44:52;;;;;;;8.30;4.40;;;21.40;74.00;;;;;;214967;1290;22463;-57
2022/10/09 02:49:56;;;;;;;8.30;3.90;;;21.30;73.80;;;;;;215012;1290;24403;-56
2022/10/09 02:54:59;;;;;;;12.70;4.00;;;21.40;73.70;;;;;;215071;1300;26534;-59
2022/10/09 03:00:03;;;;;;;9.40;4.10;;;21.30;73.70;;;;;;214845;1300;25244;-61
2022/10/09 03:05:07;;;;;;;12.00;3.60;;;21.40;73.70;;;;;;215042;1298;25262;-59
2022/10/09 03:10:11;;;;;;;7.20;3.50;;;21.30;73.60;;;;;;214978;1284;25009;-57
2022/10/09 03:15:15;;;;;;;14.50;4.60;;;21.30;73.60;;;;;;214948;1300;22491;-57
2022/10/09 03:20:20;;;;;;;10.10;4.00;;;21.20;73.50;;;;;;214957;1284;22552;-59
2022/10/09 03:25:23;;;;;;;6.80;3.30;;;21.30;73.50;;;;;;215089;1281;24248;-58
2022/10/09 03:30:28;;;;;;;12.90;4.40;;;21.20;73.40;;;;;;214996;1282;24376;-58
2022/10/09 03:35:31;;;;;;;7.20;3.50;;;21.30;73.20;;;;;;214948;1295;23844;-59
2022/10/09 03:40:35;;;;;;;7.00;3.50;;;21.20;73.10;;;;;;215000;1284;22449;-59
2022/10/09 03:45:39;;;;;;;7.20;3.30;;;21.20;73.10;;;;;;214859;1291;22473;-58
2022/10/09 03:50:43;;;;;;;4.90;2.90;;;21.20;73.30;;;;;;214852;1295;22496;-57
2022/10/09 03:55:46;;;;;;;6.40;2.80;;;21.20;73.10;;;;;;215024;1291;22472;-56
2022/10/09 04:00:51;;;;;;;7.70;3.30;;;21.20;73.50;;;;;;214850;1294;25306;-57
2022/10/09 04:05:55;;;;;;;10.90;4.30;;;21.10;73.50;;;;;;222948;1282;22170;-58
2022/10/09 04:11:02;;;;;;;10.10;3.80;;;21.10;73.30;;;;;;214903;1298;22528;-56
2022/10/09 04:16:11;;;;;;;8.00;3.60;;;21.10;74.10;;;;;;219407;1292;22458;-59
2022/10/09 04:21:16;;;;;;;5.70;3.00;;;21.10;73.60;;;;;;215078;1285;22469;-58
2022/10/09 04:26:20;;;;;;;6.10;2.90;;;21.10;73.90;;;;;;214678;1288;25197;-58
2022/10/09 04:31:24;;;;;;;5.10;2.60;;;21.10;73.40;;;;;;215059;1278;24225;-54
2022/10/09 04:36:29;;;;;;;5.80;2.90;;;21.10;73.40;;;;;;215008;1291;22464;-57
2022/10/09 04:41:33;;;;;;;6.80;2.90;;;21.00;73.30;;;;;;215079;1300;26466;-59
2022/10/09 04:46:40;;;;;;;5.90;2.90;;;21.00;73.30;;;;;;214828;1285;22459;-58
2022/10/09 04:51:44;;;;;;;7.40;2.50;;;21.00;73.90;;;;;;214975;1300;25422;-59
2022/10/09 04:56:47;;;;;;;6.80;2.50;;;21.00;73.30;;;;;;214977;1286;24274;-57
2022/10/09 05:01:50;;;;;;;6.40;2.80;;;21.00;73.40;;;;;;214939;1287;22548;-60
2022/10/09 05:06:54;;;;;;;5.90;2.90;;;20.90;73.60;;;;;;214957;1286;22825;-58
2022/10/09 05:12:00;;;;;;;5.00;2.70;;;20.90;73.70;;;;;;214909;1285;22467;-58
2022/10/09 05:17:09;;;;;;;7.40;3.10;;;20.90;73.70;;;;;;214933;1300;25357;-58
2022/10/09 05:22:17;;;;;;;6.10;2.40;;;20.90;73.30;;;;;;214981;1281;22463;-58
2022/10/09 05:27:23;;;;;;;6.20;2.50;;;20.90;73.70;;;;;;214720;1285;22462;-58
2022/10/09 05:32:28;;;;;;;7.30;2.80;;;20.90;73.90;;;;;;214838;1300;23310;-57
2022/10/09 05:37:32;;;;;;;6.30;2.90;;;20.90;73.30;;;;;;214896;1286;22586;-58
2022/10/09 05:42:35;;;;;;;7.50;3.20;;;20.90;73.70;;;;;;214807;1300;25744;-58
2022/10/09 05:47:45;;;;;;;8.10;2.80;;;20.90;73.40;;;;;;214846;1291;24208;-58
2022/10/09 05:52:50;;;;;;;9.20;2.90;;;20.90;73.30;;;;;;215028;1286;22465;-59
2022/10/09 05:58:01;;;;;;;4.90;2.60;;;20.80;73.70;;;;;;214894;1288;24158;-58
2022/10/09 06:03:06;;;;;;;6.60;2.30;;;20.80;73.30;;;;;;214921;1300;22457;-58
2022/10/09 06:08:12;;;;;;;6.60;2.70;;;20.80;73.70;;;;;;214219;1295;207723;-59
2022/10/09 06:13:15;;;;;;;10.60;2.90;;;20.80;73.40;;;;;;214446;1289;22521;-62
2022/10/09 06:18:20;;;;;;;4.70;2.50;;;20.80;73.40;;;;;;214470;1295;22547;-59
2022/10/09 06:23:26;;;;;;;9.70;3.30;;;20.80;73.40;;;;;;214634;1295;22722;-56
2022/10/09 06:28:47;;;;;;;5.40;2.60;;;20.80;73.30;;;;;;214646;1288;22518;-58
2022/10/09 06:34:03;;;;;;;5.80;2.70;;;21.20;73.10;;;;;;214571;1302;22461;-59
2022/10/09 06:39:17;;;;;;;7.90;2.80;;;21.50;71.50;;;;;;214519;1302;25265;-60
2022/10/09 06:44:23;;;;;;;7.40;3.00;;;21.80;70.60;;;;;;214478;1294;22502;-56
2022/10/09 06:49:36;;;;;;;5.10;2.40;;;22.00;70.00;;;;;;214516;1297;22699;-58
2022/10/09 06:55:31;;;;;;;3.50;2.10;;;22.10;69.60;;;;;;214604;1298;25376;-57
2022/10/09 07:00:49;;;;;;;4.20;2.10;;;22.20;69.70;;;;;;214322;1281;22548;-58
2022/10/09 07:06:17;;;;;;;6.10;2.40;;;22.30;69.30;;;;;;214910;1300;22909;-59
2022/10/09 07:11:44;;;;;;;9.10;2.40;;;22.40;69.20;;;;;;213804;1292;24404;-61
2022/10/09 07:17:07;;;;;;;9.80;3.00;;;22.50;69.30;;;;;;213826;1287;25646;-58
2022/10/09 07:22:31;;;;;;;6.80;2.50;;;22.60;68.90;;;;;;213836;1288;22475;-59
2022/10/09 07:27:51;;;;;;;7.10;2.70;;;22.60;69.00;;;;;;213981;1284;24436;-59
2022/10/09 07:32:55;;;;;;;7.70;2.60;;;22.50;69.40;;;;;;213775;1299;22475;-59
2022/10/09 07:37:59;;;;;;;5.90;2.10;;;22.40;69.80;;;;;;213881;1293;22495;-57
2022/10/09 07:43:02;;;;;;;9.30;2.30;;;22.30;70.00;;;;;;214802;1295;22801;-58
2022/10/09 07:48:11;;;;;;;11.90;3.30;;;22.20;70.50;;;;;;214992;1287;22467;-58
2022/10/09 07:53:25;;;;;;;15.50;3.60;;;22.20;71.30;;;;;;215030;1292;25637;-61
2022/10/09 07:58:29;;;;;;;9.10;2.40;;;22.20;71.10;;;;;;214825;1294;23056;-58
2022/10/09 08:03:35;;;;;;;6.40;2.50;;;22.20;71.10;;;;;;215055;1291;22461;-58
2022/10/09 08:08:41;;;;;;;11.60;3.80;;;22.20;71.20;;;;;;214482;1295;24451;-58
2022/10/09 08:14:34;;;;;;;4.90;2.20;;;22.20;71.00;;;;;;215000;1273;22506;-57
2022/10/09 08:20:02;;;;;;;8.70;2.30;;;22.20;71.40;;;;;;214872;1280;24346;-60
2022/10/09 08:25:38;;;;;;;9.30;2.30;;;22.30;71.20;;;;;;214931;1292;22744;-55
2022/10/09 08:31:01;;;;;;;9.20;2.30;;;22.30;71.20;;;;;;214920;1288;23316;-59
2022/10/09 08:36:16;;;;;;;11.70;2.00;;;22.20;71.20;;;;;;214849;1298;23917;-56
2022/10/09 08:41:42;;;;;;;7.90;2.00;;;22.40;71.00;;;;;;215016;1288;23987;-59
2022/10/09 08:47:02;;;;;;;14.10;2.20;;;22.40;70.90;;;;;;215129;1280;24224;-59
2022/10/09 08:52:15;;;;;;;8.60;2.30;;;22.40;70.70;;;;;;214888;1298;22477;-63
2022/10/09 08:57:33;;;;;;;7.80;2.00;;;22.50;70.40;;;;;;214865;1300;22652;-58
2022/10/09 09:03:10;;;;;;;5.80;1.80;;;22.50;70.30;;;;;;214990;1294;22506;-58
2022/10/09 09:08:48;;;;;;;10.00;2.10;;;22.40;70.50;;;;;;214855;1288;22467;-58
2022/10/09 09:14:08;;;;;;;10.70;2.50;;;22.60;70.40;;;;;;215051;1287;22569;-58
2022/10/09 09:19:33;;;;;;;17.90;2.60;;;22.70;69.90;;;;;;214926;1288;24390;-59
2022/10/09 09:24:44;;;;;;;8.50;1.90;;;22.70;70.30;;;;;;214991;1287;25563;-59
2022/10/09 09:30:10;;;;;;;10.10;2.20;;;22.80;69.80;;;;;;215025;1301;25577;-61
2022/10/09 09:35:32;;;;;;;9.30;2.10;;;22.80;69.70;;;;;;215063;1284;24973;-58
2022/10/09 09:40:36;;;;;;;15.50;3.30;;;22.80;70.40;;;;;;214927;1287;22501;-63
2022/10/09 09:45:44;;;;;;;13.70;2.60;;;22.90;70.20;;;;;;214908;1282;22516;-60
2022/10/09 09:50:53;;;;;;;10.00;2.70;;;22.90;70.40;;;;;;215005;1288;22472;-59
2022/10/09 09:56:19;;;;;;;13.00;2.40;;;23.00;70.40;;;;;;215140;1288;22585;-59
2022/10/09 10:01:29;;;;;;;12.00;2.40;;;23.00;70.20;;;;;;215025;1289;25476;-58
2022/10/09 10:06:41;;;;;;;10.00;2.30;;;23.00;69.50;;;;;;214843;1281;24212;-63
2022/10/09 10:11:54;;;;;;;6.60;2.30;;;23.10;69.30;;;;;;215134;1287;22982;-60
2022/10/09 10:17:01;;;;;;;12.20;2.60;;;23.30;69.70;;;;;;214964;1285;22702;-61
2022/10/09 10:22:20;;;;;;;8.00;2.00;;;23.30;68.60;;;;;;214980;1298;22595;-62
2022/10/09 10:27:25;;;;;;;;;;;23.30;68.90;;;;;;215193;1291;25954;-58
2022/10/09 10:32:36;;;;;;;13.50;2.30;;;23.30;68.40;;;;;;214919;1286;24260;-60
2022/10/09 10:37:57;;;;;;;7.50;2.30;;;23.40;68.40;;;;;;214967;1286;23881;-60
2022/10/09 10:43:03;;;;;;;;;;;23.50;68.10;;;;;;215009;1300;25330;-62
2022/10/09 10:48:24;;;;;;;9.40;2.20;;;23.60;67.90;;;;;;214848;1288;24723;-58
2022/10/09 10:53:44;;;;;;;9.70;2.60;;;23.60;67.60;;;;;;214753;1294;22459;-57
2022/10/09 10:59:26;;;;;;;7.70;2.00;;;23.60;67.40;;;;;;214978;1300;22488;-57
2022/10/09 11:04:42;;;;;;;10.50;2.20;;;23.70;67.40;;;;;;214876;1293;25260;-59
2022/10/09 11:09:45;;;;;;;8.40;2.60;;;23.70;67.40;;;;;;215081;1271;22464;-57
2022/10/09 11:15:02;;;;;;;10.60;2.60;;;23.70;67.70;;;;;;214898;1300;24220;-60
2022/10/09 11:20:48;;;;;;;5.20;1.70;;;23.70;67.00;;;;;;215035;1285;22706;-59
2022/10/09 11:26:21;;;;;;;10.90;2.50;;;23.80;66.70;;;;;;215006;1282;22520;-58
2022/10/09 11:31:49;;;;;;;8.60;2.00;;;23.90;66.40;;;;;;214888;1292;23021;-60
2022/10/09 11:37:26;;;;;;;8.90;2.20;;;23.90;66.50;;;;;;214718;1300;23571;-59
2022/10/09 11:42:30;;;;;;;16.30;2.70;;;23.90;66.80;;;;;;214880;1300;26498;-56
2022/10/09 11:47:47;;;;;;;5.90;1.60;;;23.90;66.80;;;;;;214862;1288;24296;-62
2022/10/09 11:53:21;;;;;;;7.10;1.70;;;23.90;66.50;;;;;;214958;1283;24239;-60
2022/10/09 11:59:02;;;;;;;10.40;1.80;;;24.10;66.20;;;;;;214898;1283;22505;-57
2022/10/09 12:04:12;;;;;;;8.30;2.10;;;24.00;66.20;;;;;;214906;1287;22492;-58
2022/10/09 12:09:31;;;;;;;12.00;2.40;;;23.90;66.90;;;;;;214719;1299;24184;-61
2022/10/09 12:14:37;;;;;;;9.70;1.90;;;23.90;66.60;;;;;;214964;1275;23283;-60
2022/10/09 12:20:17;;;;;;;9.50;3.10;;;23.80;66.60;;;;;;214979;1284;23735;-59
2022/10/09 12:25:39;;;;;;;7.50;1.90;;;23.90;66.60;;;;;;215007;1290;24173;-61
2022/10/09 12:30:52;;;;;;;11.00;2.30;;;24.00;66.20;;;;;;215048;1281;22563;-63
2022/10/09 12:36:13;;;;;;;14.20;2.50;;;24.00;66.30;;;;;;214986;1300;25395;-60
2022/10/09 12:41:31;;;;;;;9.70;2.00;;;23.90;66.10;;;;;;215007;1282;24387;-62
2022/10/09 12:46:37;;;;;;;4.70;1.90;;;24.00;66.10;;;;;;214889;1288;23859;-61
2022/10/09 12:51:40;;;;;;;10.70;2.20;;;24.00;66.00;;;;;;214997;1282;22483;-64
2022/10/09 12:56:46;;;;;;;8.30;2.40;;;24.00;66.10;;;;;;215013;1281;24522;-63
2022/10/09 13:01:54;;;;;;;4.90;1.70;;;24.10;65.70;;;;;;214938;1281;22484;-62
2022/10/09 13:07:04;;;;;;;5.90;1.70;;;24.00;65.80;;;;;;215052;1294;25370;-64
2022/10/09 13:12:15;;;;;;;8.70;2.20;;;24.00;65.70;;;;;;214930;1294;24209;-64
2022/10/09 13:17:36;;;;;;;4.40;1.50;;;24.00;65.00;;;;;;214976;1278;22600;-63
2022/10/09 13:22:39;;;;;;;12.20;2.10;;;24.10;65.40;;;;;;215180;1281;25110;-63
2022/10/09 13:27:43;;;;;;;5.10;1.40;;;24.00;65.10;;;;;;215024;1282;22478;-62
2022/10/09 13:32:46;;;;;;;8.30;1.50;;;24.10;65.50;;;;;;214944;1300;22654;-61
2022/10/09 13:37:50;;;;;;;6.40;1.70;;;24.10;64.40;;;;;;214831;1288;23718;-64
2022/10/09 13:43:01;;;;;;;7.20;2.40;;;24.10;64.00;;;;;;214948;1299;22478;-63
2022/10/09 13:48:14;;;;;;;8.20;2.50;;;24.10;63.20;;;;;;214877;1280;23224;-61
2022/10/09 13:53:21;;;;;;;5.90;2.40;;;24.10;63.20;;;;;;214891;1284;24288;-66
2022/10/09 13:58:25;;;;;;;16.60;3.40;;;24.10;62.40;;;;;;214933;1286;24160;-64
2022/10/09 14:03:32;;;;;;;9.00;2.20;;;24.10;62.30;;;;;;215019;1288;22460;-63
2022/10/09 14:08:35;;;;;;;6.60;2.20;;;23.80;59.70;;;;;;214649;1288;24228;-63
2022/10/09 14:13:40;;;;;;;7.80;2.30;;;23.90;61.80;;;;;;214824;1284;25276;-64
2022/10/09 14:18:44;;;;;;;8.80;2.30;;;23.90;56.60;;;;;;214739;1288;25437;-65
2022/10/09 14:23:52;;;;;;;10.40;2.40;;;23.90;59.10;;;;;;214891;1293;22467;-64
2022/10/09 14:28:59;;;;;;;10.30;2.80;;;23.90;60.80;;;;;;214881;1294;22463;-64
2022/10/09 14:34:02;;;;;;;7.60;2.30;;;23.80;56.50;;;;;;214610;1285;25678;-65
2022/10/09 14:39:13;;;;;;;10.60;2.40;;;23.70;56.70;;;;;;214881;1290;22539;-64
2022/10/09 14:44:21;;;;;;;10.70;2.50;;;23.70;57.40;;;;;;215058;1292;22479;-61
2022/10/09 14:49:33;;;;;;;14.20;3.50;;;23.60;56.60;;;;;;214678;1298;22483;-66
2022/10/09 14:54:44;;;;;;;12.20;3.40;;;23.60;55.90;;;;;;215030;1294;25347;-62
2022/10/09 15:00:02;;;;;;;11.50;2.80;;;23.50;55.40;;;;;;214895;1286;25327;-64
2022/10/09 15:05:14;;;;;;;12.60;2.30;;;23.40;54.70;;;;;;215094;1284;22949;-65
2022/10/09 15:10:23;;;;;;;5.80;2.10;;;23.30;54.40;;;;;;214938;1281;24523;-63
2022/10/09 15:15:41;;;;;;;6.50;1.90;;;23.30;54.30;;;;;;215040;1275;22459;-58
2022/10/09 15:20:50;;;;;;;7.40;2.40;;;23.30;52.40;;;;;;215087;1300;22465;-61
2022/10/09 15:25:57;;;;;;;6.60;2.20;;;23.30;53.60;;;;;;215018;1285;24266;-61
2022/10/09 15:31:05;;;;;;;14.10;2.40;;;23.30;55.60;;;;;;214880;1285;24295;-62
2022/10/09 15:36:24;;;;;;;10.20;2.00;;;23.40;56.70;;;;;;215107;1299;24527;-62
2022/10/09 15:41:57;;;;;;;17.00;3.00;;;23.40;57.40;;;;;;214978;1292;26464;-62
2022/10/09 15:47:20;;;;;;;7.60;2.50;;;23.40;58.40;;;;;;214925;1284;22476;-60
2022/10/09 15:52:47;;;;;;;13.40;3.00;;;23.30;58.80;;;;;;214856;1287;22533;-62
2022/10/09 15:57:53;;;;;;;7.10;2.10;;;23.30;59.40;;;;;;214977;1294;22500;-62
2022/10/09 16:02:58;;;;;;;7.50;2.10;;;23.30;59.40;;;;;;215034;1283;24285;-62
2022/10/09 16:08:06;;;;;;;5.10;2.00;;;23.30;59.50;;;;;;214984;1281;23189;-62
2022/10/09 16:13:11;;;;;;;6.10;1.80;;;23.30;59.40;;;;;;215107;1300;22759;-63
2022/10/09 16:18:22;;;;;;;7.40;2.40;;;23.30;59.80;;;;;;215065;1293;22693;-64
2022/10/09 16:23:28;;;;;;;5.60;1.90;;;23.30;60.10;;;;;;214705;1284;25755;-62
2022/10/09 16:28:33;;;;;;;11.90;3.70;;;23.30;59.70;;;;;;214948;1295;22479;-61
2022/10/09 16:33:36;;;;;;;15.20;5.00;;;23.20;59.90;;;;;;214983;1287;22470;-62
2022/10/09 16:38:40;;;;;;;20.40;6.10;;;23.30;59.30;;;;;;215069;1288;22524;-60
2022/10/09 16:43:53;;;;;;;18.30;6.00;;;23.30;59.70;;;;;;215001;1300;26626;-61
2022/10/09 16:48:59;;;;;;;19.40;6.50;;;23.30;59.70;;;;;;215042;1294;24046;-61
2022/10/09 16:54:05;;;;;;;14.80;4.80;;;23.30;60.50;;;;;;215058;1286;24344;-60
2022/10/09 16:59:11;;;;;;;15.50;5.50;;;23.30;60.70;;;;;;214901;1292;22547;-59
2022/10/09 17:04:16;;;;;;;16.90;5.10;;;23.20;61.00;;;;;;214699;1286;25598;-60
2022/10/09 17:09:20;;;;;;;11.70;4.60;;;23.20;61.30;;;;;;214771;1291;22585;-63
2022/10/09 17:14:23;;;;;;;17.50;4.50;;;23.20;61.80;;;;;;215179;1285;22859;-61
2022/10/09 17:19:28;;;;;;;21.30;9.80;;;23.20;61.50;;;;;;215098;1294;25629;-61
2022/10/09 17:24:34;;;;;;;22.40;11.20;;;23.20;62.00;;;;;;215022;1282;24310;-62
2022/10/09 17:29:40;;;;;;;23.70;12.70;;;23.30;62.90;;;;;;215129;1284;25262;-63
2022/10/09 17:34:44;;;;;;;26.70;13.30;;;23.30;63.70;;;;;;214915;1282;22856;-61
2022/10/09 17:39:57;;;;;;;22.90;13.30;;;23.30;64.60;;;;;;215000;1294;25353;-62
2022/10/09 17:45:01;;;;;;;30.20;16.30;;;23.30;65.10;;;;;;214952;1296;22572;-61
2022/10/09 17:50:05;;;;;;;28.10;14.50;;;23.30;65.60;;;;;;214869;1294;24107;-58
2022/10/09 17:55:15;;;;;;;20.80;12.70;;;23.20;65.50;;;;;;215011;1281;25613;-60
2022/10/09 18:00:27;;;;;;;23.10;12.50;;;23.20;65.50;;;;;;215252;1288;22661;-63
2022/10/09 18:05:40;;;;;;;21.60;12.30;;;23.10;65.90;;;;;;214965;1281;160022;-61
2022/10/09 18:10:43;;;;;;;23.90;11.50;;;23.10;65.60;;;;;;214994;1275;24300;-61
2022/10/09 18:15:47;;;;;;;22.20;11.60;;;23.10;65.50;;;;;;215043;1284;24855;-62
2022/10/09 18:20:53;;;;;;;24.60;10.70;;;23.10;66.00;;;;;;214790;1300;24012;-58
2022/10/09 18:26:13;;;;;;;19.40;10.30;;;23.10;66.00;;;;;;214834;1282;22477;-57
2022/10/09 18:31:22;;;;;;;23.10;9.80;;;23.00;66.20;;;;;;215088;1281;22519;-59
2022/10/09 18:36:30;;;;;;;21.00;10.00;;;23.10;67.30;;;;;;215122;1282;22476;-59
2022/10/09 18:42:03;;;;;;;19.90;9.10;;;23.10;66.90;;;;;;214979;1284;25396;-61
2022/10/09 18:47:17;;;;;;;18.00;8.90;;;23.00;66.50;;;;;;214867;1284;24279;-60
2022/10/09 18:52:29;;;;;;;25.20;9.90;;;23.10;66.30;;;;;;215093;1282;24244;-60
2022/10/09 18:57:58;;;;;;;;;;;;;;;;;;;;;
2022/10/09 19:03:13;;;;;;;21.00;8.00;;;23.10;65.90;;;;;;214919;1283;22823;-58
2022/10/09 19:08:29;;;;;;;24.50;10.20;;;23.00;66.00;;;;;;214875;1281;24166;-59
2022/10/09 19:13:42;;;;;;;16.10;9.00;;;23.10;66.50;;;;;;214971;1286;22610;-60
2022/10/09 19:24:28;;;;;;;19.10;8.50;;;23.00;65.60;;;;;;214997;1285;24248;-63
2022/10/09 19:29:39;;;;;;;24.20;8.90;;;22.90;65.40;;;;;;215090;1282;22476;-62
2022/10/09 19:35:16;;;;;;;22.90;8.90;;;22.90;65.50;;;;;;215127;1295;24352;-65
2022/10/09 19:40:23;;;;;;;21.40;8.50;;;22.80;66.00;;;;;;214893;1288;23245;-66
2022/10/09 19:45:40;;;;;;;22.70;9.20;;;22.90;66.80;;;;;;215098;1284;22858;-63
2022/10/09 19:50:50;;;;;;;18.10;8.20;;;22.90;67.80;;;;;;214914;1286;22583;-63
2022/10/09 19:56:16;;;;;;;15.70;8.20;;;23.00;68.40;;;;;;214935;1281;25286;-64
2022/10/09 20:01:38;;;;;;;15.40;8.00;;;22.90;68.60;;;;;;214920;1284;22505;-64
2022/10/09 20:07:01;;;;;;;16.90;8.10;;;22.90;68.60;;;;;;214882;1286;25454;-68
2022/10/09 20:12:24;;;;;;;17.50;8.50;;;22.90;68.70;;;;;;214867;1284;22463;-65
2022/10/09 20:17:42;;;;;;;21.20;7.90;;;22.80;68.40;;;;;;214991;1280;24250;-63
2022/10/09 20:22:54;;;;;;;14.40;7.50;;;22.70;68.80;;;;;;214880;1294;22468;-65
2022/10/09 20:28:03;;;;;;;18.30;9.70;;;22.70;68.40;;;;;;214944;1284;24444;-62
2022/10/09 20:33:32;;;;;;;15.10;8.00;;;22.60;67.80;;;;;;214862;1290;22467;-61
2022/10/09 20:38:38;;;;;;;16.50;8.00;;;22.60;69.00;;;;;;214886;1296;22849;-61
2022/10/09 20:43:58;;;;;;;16.60;8.80;;;22.50;68.40;;;;;;214980;1286;23071;-63
2022/10/09 20:49:04;;;;;;;14.30;7.90;;;22.50;68.70;;;;;;215022;1294;25487;-63
2022/10/09 20:54:17;;;;;;;13.40;7.60;;;22.50;69.10;;;;;;215163;1285;22545;-59
2022/10/09 20:59:30;;;;;;;13.00;7.70;;;22.50;69.70;;;;;;214701;1299;22467;-62
2022/10/09 21:04:33;;;;;;;17.30;8.30;;;22.50;69.80;;;;;;214792;1295;24394;-61
2022/10/09 21:09:39;;;;;;;20.60;8.40;;;22.50;69.50;;;;;;214559;1294;22450;-62
2022/10/09 21:14:56;;;;;;;14.90;7.80;;;22.40;70.20;;;;;;214827;1286;24455;-62
2022/10/09 21:20:22;;;;;;;14.80;7.70;;;22.50;70.00;;;;;;214551;1281;24200;-61
2022/10/09 21:25:51;;;;;;;11.60;7.20;;;22.40;69.90;;;;;;214809;1286;25187;-61
2022/10/09 21:31:02;;;;;;;17.00;7.90;;;22.40;70.00;;;;;;214514;1289;25422;-62
2022/10/09 21:36:42;;;;;;;16.40;7.50;;;22.30;69.90;;;;;;214758;1300;25326;-65
2022/10/09 21:42:33;;;;;;;16.70;8.40;;;22.30;69.90;;;;;;214635;1291;22479;-63
2022/10/09 21:48:01;;;;;;;12.00;7.10;;;22.20;70.00;;;;;;214852;1281;24231;-61
2022/10/09 21:53:31;;;;;;;12.60;6.60;;;22.30;70.00;;;;;;214436;1275;24307;-61
2022/10/09 21:59:02;;;;;;;11.50;7.00;;;22.20;69.90;;;;;;214582;1286;23612;-62
2022/10/09 22:04:27;;;;;;;13.70;7.50;;;22.20;70.00;;;;;;214568;1285;22454;-60
2022/10/09 22:09:40;;;;;;;9.90;6.50;;;22.20;70.00;;;;;;214708;1281;24213;-62
2022/10/09 22:15:11;;;;;;;13.40;7.60;;;22.20;70.00;;;;;;214548;1295;22603;-59
2022/10/09 22:20:31;;;;;;;13.10;7.40;;;22.20;70.10;;;;;;214446;1289;24314;-60
2022/10/09 22:26:02;;;;;;;12.10;6.60;;;22.20;70.00;;;;;;214817;1294;25451;-62
2022/10/09 22:31:17;;;;;;;21.70;8.10;;;22.20;69.90;;;;;;214851;1286;23770;-61
2022/10/09 22:36:24;;;;;;;10.80;6.10;;;22.20;70.00;;;;;;215011;1280;24326;-63
2022/10/09 22:41:41;;;;;;;11.60;6.10;;;22.20;69.50;;;;;;214955;1281;22469;-64
2022/10/09 22:46:58;;;;;;;14.40;7.90;;;22.20;69.60;;;;;;215090;1294;25353;-64
2022/10/09 22:52:05;;;;;;;11.10;6.30;;;22.20;69.10;;;;;;214856;1290;22573;-66
2022/10/09 22:57:23;;;;;;;12.00;6.50;;;22.10;69.20;;;;;;215024;1278;22549;-64
2022/10/09 23:02:31;;;;;;;12.00;6.30;;;22.10;69.50;;;;;;214993;1284;22453;-62
2022/10/09 23:07:35;;;;;;;12.60;6.40;;;22.10;69.50;;;;;;214893;1284;24333;-63
2022/10/09 23:12:52;;;;;;;8.70;5.90;;;22.00;69.30;;;;;;215040;1288;24285;-63
2022/10/09 23:17:57;;;;;;;12.50;7.20;;;22.00;69.30;;;;;;215062;1291;22531;-63
2022/10/09 23:23:06;;;;;;;11.70;6.50;;;22.00;69.40;;;;;;215097;1287;25682;-64
2022/10/09 23:28:13;;;;;;;10.50;6.50;;;22.00;69.50;;;;;;214789;1300;23843;-63
2022/10/09 23:33:17;;;;;;;12.20;7.00;;;21.90;69.20;;;;;;214516;1300;25524;-63
2022/10/09 23:38:21;;;;;;;11.90;6.20;;;21.90;69.30;;;;;;215114;1299;22464;-66
2022/10/09 23:43:37;;;;;;;11.00;5.90;;;21.90;69.30;;;;;;214890;1294;24245;-61
2022/10/09 23:48:47;;;;;;;11.60;6.40;;;21.90;69.30;;;;;;214785;1298;25351;-64
2022/10/09 23:53:53;;;;;;;8.80;5.70;;;21.90;69.40;;;;;;214915;1300;24515;-64
2022/10/09 23:58:58;;;;;;;9.20;6.00;;;21.80;69.40;;;;;;215148;1289;24265;-63
